createdAt,value
2018-12-25T00:00:24.104Z,8.00
2018-12-25T00:03:04.997Z,8.00
2018-12-25T00:05:45.812Z,8.00
2018-12-25T00:08:26.766Z,8.00
2018-12-25T00:11:07.533Z,8.00
2018-12-25T00:13:48.140Z,8.30
2018-12-25T00:16:28.897Z,8.40
2018-12-25T00:19:09.560Z,8.50
2018-12-25T00:21:50.296Z,8.00
2018-12-25T00:24:31.148Z,8.10
2018-12-25T00:27:12.077Z,8.10
2018-12-25T00:29:53.205Z,8.10
2018-12-25T00:32:34.328Z,7.90
2018-12-25T00:35:15.461Z,7.70
2018-12-25T00:37:56.220Z,7.60
2018-12-25T00:40:36.449Z,7.80
2018-12-25T00:43:17.432Z,7.60
2018-12-25T00:45:58.003Z,7.70
2018-12-25T00:48:38.949Z,7.60
2018-12-25T00:51:19.863Z,7.70
2018-12-25T00:54:00.385Z,7.70
2018-12-25T00:56:41.321Z,7.80
2018-12-25T00:59:22.298Z,7.80
2018-12-25T01:02:03.096Z,7.50
2018-12-25T01:04:43.833Z,7.60
2018-12-25T01:07:24.713Z,7.60
2018-12-25T01:10:05.417Z,7.70
2018-12-25T01:12:46.385Z,7.60
2018-12-25T01:15:27.162Z,7.90
2018-12-25T01:18:07.886Z,7.50
2018-12-25T01:20:48.918Z,7.50
2018-12-25T01:23:29.757Z,7.40
2018-12-25T01:26:10.756Z,7.60
2018-12-25T01:28:54.445Z,7.50
2018-12-25T01:31:35.261Z,7.50
2018-12-25T01:34:15.813Z,7.40
2018-12-25T01:36:56.519Z,7.30
2018-12-25T01:39:37.366Z,7.30
2018-12-25T01:42:18.392Z,7.40
2018-12-25T01:44:59.315Z,7.20
2018-12-25T01:47:40.498Z,7.20
2018-12-25T01:50:20.952Z,7.20
2018-12-25T01:53:01.408Z,7.40
2018-12-25T01:55:42.431Z,7.40
2018-12-25T01:58:22.869Z,7.40
2018-12-25T02:01:04.237Z,7.60
2018-12-25T02:03:45.238Z,7.50
2018-12-25T02:06:29.125Z,7.80
2018-12-25T02:09:09.705Z,7.70
2018-12-25T02:11:50.970Z,7.30
2018-12-25T02:14:31.580Z,7.20
2018-12-25T02:17:12.870Z,7.30
2018-12-25T02:19:53.378Z,7.20
2018-12-25T02:22:34.263Z,6.90
2018-12-25T02:25:14.966Z,7.00
2018-12-25T02:27:55.993Z,7.60
2018-12-25T02:30:36.737Z,7.40
2018-12-25T02:33:17.572Z,7.40
2018-12-25T02:35:58.437Z,7.20
2018-12-25T02:38:39.532Z,7.40
2018-12-25T02:41:20.370Z,7.40
2018-12-25T02:44:00.846Z,7.20
2018-12-25T02:46:41.960Z,7.40
2018-12-25T02:49:22.866Z,7.30
2018-12-25T02:52:03.741Z,7.30
2018-12-25T02:54:43.965Z,7.30
2018-12-25T02:57:24.461Z,7.50
2018-12-25T03:00:05.266Z,7.40
2018-12-25T03:02:46.090Z,7.30
2018-12-25T03:05:27.034Z,7.10
2018-12-25T03:08:07.460Z,7.40
2018-12-25T03:10:48.472Z,7.30
2018-12-25T03:13:29.264Z,7.20
2018-12-25T03:16:09.724Z,7.30
2018-12-25T03:18:50.274Z,7.30
2018-12-25T03:21:18.698Z,7.30
2018-12-25T03:24:06.455Z,7.40
2018-12-25T03:26:54.200Z,7.40
2018-12-25T03:29:41.962Z,7.30
2018-12-25T03:32:29.702Z,7.20
2018-12-25T03:35:17.486Z,7.30
2018-12-25T03:38:05.241Z,7.40
2018-12-25T03:40:53.017Z,7.60
2018-12-25T03:43:40.766Z,7.40
2018-12-25T03:46:28.517Z,7.60
2018-12-25T03:49:16.297Z,7.60
2018-12-25T03:52:04.054Z,7.50
2018-12-25T03:54:51.821Z,7.50
2018-12-25T03:57:39.595Z,8.00
2018-12-25T04:00:27.613Z,8.40
2018-12-25T04:03:08.117Z,8.30
2018-12-25T04:05:48.970Z,8.00
2018-12-25T04:08:29.693Z,8.00
2018-12-25T04:11:10.287Z,7.60
2018-12-25T04:13:50.929Z,7.40
2018-12-25T04:16:31.821Z,7.50
2018-12-25T04:19:12.879Z,7.40
2018-12-25T04:21:53.893Z,7.70
2018-12-25T04:24:36.278Z,7.50
2018-12-25T04:27:16.504Z,7.50
2018-12-25T04:29:57.576Z,7.80
2018-12-25T04:32:38.581Z,7.50
2018-12-25T04:35:19.815Z,7.30
2018-12-25T04:38:00.041Z,7.50
2018-12-25T04:40:40.671Z,7.40
2018-12-25T04:43:21.214Z,7.30
2018-12-25T04:46:01.779Z,7.40
2018-12-25T04:48:42.790Z,7.30
2018-12-25T04:51:23.514Z,7.60
2018-12-25T04:54:04.146Z,7.40
2018-12-25T04:56:45.131Z,7.50
2018-12-25T05:02:08.298Z,7.20
2018-12-25T05:04:49.130Z,7.50
2018-12-25T05:07:29.936Z,7.50
2018-12-25T05:10:10.606Z,7.90
2018-12-25T05:12:51.302Z,7.40
2018-12-25T05:15:32.276Z,7.70
2018-12-25T05:18:13.110Z,7.50
2018-12-25T05:20:53.704Z,7.40
2018-12-25T05:23:34.785Z,7.40
2018-12-25T05:26:16.040Z,7.40
2018-12-25T05:28:56.781Z,7.20
2018-12-25T05:31:37.317Z,7.10
2018-12-25T05:34:18.088Z,7.10
2018-12-25T05:36:46.525Z,7.50
2018-12-25T05:39:34.273Z,7.40
2018-12-25T05:42:22.042Z,7.70
2018-12-25T05:45:09.965Z,7.70
2018-12-25T05:47:57.754Z,8.00
2018-12-25T05:50:46.820Z,7.60
2018-12-25T05:53:34.987Z,7.50
2018-12-25T05:56:22.764Z,8.10
2018-12-25T05:59:10.532Z,7.60
2018-12-25T06:01:58.318Z,7.60
2018-12-25T06:04:46.049Z,7.60
2018-12-25T06:07:33.824Z,8.00
2018-12-25T06:10:21.564Z,8.00
2018-12-25T06:13:09.333Z,7.90
2018-12-25T06:15:57.101Z,8.10
2018-12-25T06:18:44.849Z,7.90
2018-12-25T06:21:32.606Z,7.90
2018-12-25T06:24:20.384Z,8.10
2018-12-25T06:27:08.201Z,8.50
2018-12-25T06:29:56.229Z,8.20
2018-12-25T06:32:43.979Z,8.10
2018-12-25T06:35:32.085Z,8.40
2018-12-25T06:38:12.293Z,8.60
2018-12-25T06:40:53.310Z,9.00
2018-12-25T06:43:34.065Z,9.00
2018-12-25T06:46:15.109Z,8.80
2018-12-25T06:48:55.525Z,8.40
2018-12-25T06:51:36.702Z,8.40
2018-12-25T06:54:17.329Z,8.60
2018-12-25T06:56:58.289Z,8.10
2018-12-25T06:59:38.707Z,8.30
2018-12-25T07:02:19.525Z,8.20
2018-12-25T07:05:00.452Z,7.60
2018-12-25T07:07:41.320Z,7.70
2018-12-25T07:10:22.009Z,7.90
2018-12-25T07:13:02.677Z,8.20
2018-12-25T07:15:43.289Z,7.90
2018-12-25T07:18:24.421Z,8.20
2018-12-25T07:21:12.097Z,8.50
2018-12-25T07:23:47.649Z,8.50
2018-12-25T07:26:28.342Z,8.10
2018-12-25T07:29:09.291Z,7.80
2018-12-25T07:31:50.416Z,8.00
2018-12-25T07:34:31.312Z,8.00
2018-12-25T07:37:12.223Z,8.10
2018-12-25T07:39:53.133Z,8.00
2018-12-25T07:42:33.970Z,8.00
2018-12-25T07:45:14.767Z,7.70
2018-12-25T07:47:55.698Z,7.90
2018-12-25T07:50:36.269Z,8.20
2018-12-25T07:53:16.948Z,8.00
2018-12-25T07:55:57.537Z,7.80
2018-12-25T07:58:38.278Z,7.80
2018-12-25T08:01:18.908Z,8.10
2018-12-25T08:04:00.496Z,8.20
2018-12-25T08:06:42.921Z,7.90
2018-12-25T08:09:23.590Z,7.80
2018-12-25T08:12:04.677Z,8.00
2018-12-25T08:14:45.443Z,7.80
2018-12-25T08:17:26.204Z,8.30
2018-12-25T08:20:06.778Z,8.50
2018-12-25T08:22:47.458Z,8.60
2018-12-25T08:25:27.895Z,8.50
2018-12-25T08:28:08.922Z,8.60
2018-12-25T08:30:49.354Z,8.70
2018-12-25T08:33:30.527Z,9.10
2018-12-25T08:36:11.395Z,9.40
2018-12-25T08:38:52.203Z,8.90
2018-12-25T08:41:32.915Z,8.70
2018-12-25T08:44:14.380Z,8.30
2018-12-25T08:46:54.826Z,8.20
2018-12-25T08:49:35.537Z,8.50
2018-12-25T08:52:03.930Z,8.60
2018-12-25T08:54:51.696Z,9.30
2018-12-25T08:57:39.431Z,9.10
2018-12-25T09:00:27.209Z,8.80
2018-12-25T09:03:14.969Z,8.50
2018-12-25T09:06:02.749Z,8.60
2018-12-25T09:08:50.525Z,9.30
2018-12-25T09:11:38.300Z,8.80
2018-12-25T09:14:26.044Z,9.40
2018-12-25T09:17:13.802Z,9.20
2018-12-25T09:20:01.564Z,8.80
2018-12-25T09:22:49.329Z,8.50
2018-12-25T09:25:37.061Z,8.80
2018-12-25T09:28:24.818Z,9.30
2018-12-25T09:31:12.573Z,9.30
2018-12-25T09:34:00.649Z,8.80
2018-12-25T09:36:48.624Z,8.70
2018-12-25T09:39:36.388Z,8.60
2018-12-25T09:42:24.386Z,8.40
2018-12-25T09:45:12.155Z,8.70
2018-12-25T09:47:59.902Z,8.90
2018-12-25T09:50:47.686Z,9.40
2018-12-25T09:53:28.613Z,8.80
2018-12-25T09:56:09.585Z,8.80
2018-12-25T09:58:50.130Z,8.50
2018-12-25T10:01:30.860Z,9.20
2018-12-25T10:04:11.825Z,9.20
2018-12-25T10:06:52.086Z,8.80
2018-12-25T10:09:33.317Z,8.40
2018-12-25T10:12:14.095Z,8.60
2018-12-25T10:14:54.616Z,8.70
2018-12-25T10:17:36.056Z,9.50
2018-12-25T10:20:16.416Z,9.90
2018-12-25T10:22:57.220Z,9.70
2018-12-25T10:25:38.120Z,9.70
2018-12-25T10:28:19.492Z,10.20
2018-12-25T10:31:00.228Z,10.30
2018-12-25T10:33:28.955Z,10.20
2018-12-25T10:36:16.721Z,9.80
2018-12-25T10:39:05.566Z,10.50
2018-12-25T10:41:53.368Z,10.10
2018-12-25T10:44:41.157Z,9.80
2018-12-25T10:47:28.905Z,9.50
2018-12-25T10:50:16.732Z,9.90
2018-12-25T10:52:57.688Z,9.40
2018-12-25T10:55:38.537Z,9.90
2018-12-25T10:58:19.046Z,9.60
2018-12-25T11:01:00.553Z,9.60
2018-12-25T11:03:41.810Z,9.20
2018-12-25T11:06:22.745Z,10.10
2018-12-25T11:09:04.443Z,9.90
2018-12-25T11:11:45.190Z,10.40
2018-12-25T11:14:25.985Z,10.10
2018-12-25T11:17:06.924Z,9.70
2018-12-25T11:19:47.910Z,9.20
2018-12-25T11:22:28.829Z,9.70
2018-12-25T11:25:09.695Z,9.90
2018-12-25T11:27:50.792Z,9.60
2018-12-25T11:30:31.438Z,10.30
2018-12-25T11:33:11.962Z,9.60
2018-12-25T11:35:52.753Z,10.30
2018-12-25T11:38:33.385Z,10.20
2018-12-25T11:41:13.984Z,9.70
2018-12-25T11:43:55.030Z,9.90
2018-12-25T11:46:35.747Z,10.20
2018-12-25T11:49:16.417Z,9.80
2018-12-25T11:51:57.335Z,10.00
2018-12-25T11:54:38.237Z,11.60
2018-12-25T11:57:19.422Z,10.50
2018-12-25T11:59:59.970Z,11.10
2018-12-25T12:02:40.543Z,11.00
2018-12-25T12:05:20.990Z,10.80
2018-12-25T12:08:03.254Z,10.40
2018-12-25T12:10:44.130Z,10.30
2018-12-25T12:13:24.965Z,10.50
2018-12-25T12:16:05.853Z,10.70
2018-12-25T12:18:46.665Z,10.00
2018-12-25T12:21:27.230Z,10.50
2018-12-25T12:27:06.434Z,11.10
2018-12-25T12:29:47.023Z,10.30
2018-12-25T12:32:27.824Z,11.40
2018-12-25T12:35:08.881Z,10.90
2018-12-25T12:37:53.473Z,10.60
2018-12-25T12:40:33.801Z,10.00
2018-12-25T12:43:14.601Z,9.70
2018-12-25T12:45:55.608Z,10.00
2018-12-25T12:49:06.727Z,10.70
2018-12-25T12:51:26.989Z,11.00
2018-12-25T12:54:09.342Z,11.20
2018-12-25T12:56:50.341Z,11.60
2018-12-25T12:59:31.466Z,10.90
2018-12-25T13:02:12.288Z,10.40
2018-12-25T13:04:55.591Z,11.00
2018-12-25T13:07:36.236Z,10.20
2018-12-25T13:10:17.128Z,9.80
2018-12-25T13:12:57.845Z,10.40
2018-12-25T13:15:38.335Z,9.70
2018-12-25T13:18:19.138Z,9.80
2018-12-25T13:20:59.952Z,10.50
2018-12-25T13:26:23.893Z,10.50
2018-12-25T13:29:04.847Z,10.80
2018-12-25T13:31:45.703Z,10.50
2018-12-25T13:34:26.250Z,9.60
2018-12-25T13:37:07.368Z,9.10
2018-12-25T13:39:48.019Z,9.20
2018-12-25T13:42:28.581Z,9.70
2018-12-25T13:45:11.546Z,10.40
2018-12-25T13:47:52.078Z,10.60
2018-12-25T13:50:35.834Z,10.80
2018-12-25T13:53:16.283Z,9.90
2018-12-25T13:55:57.443Z,10.50
2018-12-25T13:58:38.303Z,9.40
2018-12-25T14:01:19.026Z,10.20
2018-12-25T14:04:00.039Z,10.00
2018-12-25T14:06:28.452Z,10.00
2018-12-25T14:09:16.231Z,9.80
2018-12-25T14:12:03.989Z,9.80
2018-12-25T14:14:51.758Z,9.70
2018-12-25T14:17:39.806Z,9.60
2018-12-25T14:20:27.561Z,10.00
2018-12-25T14:23:15.342Z,9.80
2018-12-25T14:26:03.094Z,10.80
2018-12-25T14:28:50.845Z,9.70
2018-12-25T14:31:31.801Z,11.10
2018-12-25T14:34:12.762Z,10.90
2018-12-25T14:39:49.702Z,10.20
2018-12-25T14:42:37.470Z,10.00
2018-12-25T14:45:25.324Z,9.90
2018-12-25T14:48:13.082Z,10.10
2018-12-25T14:54:01.405Z,10.40
2018-12-25T14:56:43.175Z,10.30
2018-12-25T14:59:34.046Z,10.60
2018-12-25T15:02:14.897Z,10.30
2018-12-25T15:04:55.504Z,10.20
2018-12-25T15:07:36.607Z,9.70
2018-12-25T15:10:17.302Z,9.80
2018-12-25T15:12:58.291Z,9.50
2018-12-25T15:15:40.953Z,9.60
2018-12-25T15:18:21.907Z,9.20
2018-12-25T15:21:03.178Z,10.30
2018-12-25T15:23:45.665Z,10.30
2018-12-25T15:26:26.892Z,9.30
2018-12-25T15:29:20.385Z,9.40
2018-12-25T15:31:52.502Z,9.10
2018-12-25T15:34:36.772Z,9.10
2018-12-25T15:42:48.080Z,8.90
2018-12-25T15:48:19.043Z,8.80
2018-12-25T15:53:54.896Z,9.40
2018-12-25T15:56:36.157Z,9.10
2018-12-25T15:59:19.029Z,8.80
2018-12-25T16:02:01.097Z,8.90
2018-12-25T16:04:43.644Z,9.00
2018-12-25T16:07:25.295Z,9.10
2018-12-25T16:10:06.818Z,8.90
2018-12-25T16:12:47.181Z,9.30
2018-12-25T16:15:27.719Z,9.40
2018-12-25T16:18:08.869Z,9.40
2018-12-25T16:20:50.053Z,9.90
2018-12-25T16:23:34.243Z,9.60
2018-12-25T16:26:15.172Z,9.60
2018-12-25T16:28:56.054Z,9.00
2018-12-25T16:31:36.785Z,9.70
2018-12-25T16:34:21.275Z,9.20
2018-12-25T16:40:02.320Z,9.20
2018-12-25T16:42:40.714Z,9.70
2018-12-25T16:45:22.064Z,9.60
2018-12-25T16:48:03.143Z,9.30
2018-12-25T16:50:46.737Z,8.90
2018-12-25T16:53:27.897Z,9.10
2018-12-25T16:56:08.721Z,8.70
2018-12-25T16:58:49.689Z,8.70
2018-12-25T17:01:30.719Z,9.70
2018-12-25T17:04:11.817Z,9.10
2018-12-25T17:06:52.875Z,8.80
2018-12-25T17:09:22.064Z,8.90
2018-12-25T17:12:13.036Z,9.40
2018-12-25T17:15:01.147Z,8.70
2018-12-25T17:17:49.356Z,8.90
2018-12-25T17:20:37.638Z,9.10
2018-12-25T17:23:25.653Z,8.90
2018-12-25T17:26:32.785Z,8.80
2018-12-25T17:29:20.768Z,8.60
2018-12-25T17:32:09.300Z,8.80
2018-12-25T17:35:30.287Z,8.90
2018-12-25T17:38:08.510Z,8.70
2018-12-25T17:41:09.327Z,8.60
2018-12-25T17:43:48.351Z,9.00
2018-12-25T17:46:55.698Z,8.70
2018-12-25T17:49:43.739Z,8.50
2018-12-25T17:55:26.444Z,8.50
2018-12-25T17:58:14.291Z,8.80
2018-12-25T18:01:02.388Z,8.60
2018-12-25T18:03:50.156Z,8.40
2018-12-25T18:06:37.912Z,8.60
2018-12-25T18:09:25.897Z,8.40
2018-12-25T18:12:14.036Z,8.50
2018-12-25T18:15:01.826Z,8.30
2018-12-25T18:17:42.525Z,8.80
2018-12-25T18:20:23.462Z,8.60
2018-12-25T18:23:04.378Z,8.50
2018-12-25T18:25:45.112Z,8.60
2018-12-25T18:28:26.007Z,8.50
2018-12-25T18:31:06.921Z,8.50
2018-12-25T18:33:47.976Z,8.50
2018-12-25T18:36:28.764Z,8.50
2018-12-25T18:39:09.951Z,8.70
2018-12-25T18:41:50.918Z,8.40
2018-12-25T18:44:31.550Z,8.30
2018-12-25T18:47:12.250Z,8.60
2018-12-25T18:49:53.257Z,8.50
2018-12-25T18:52:34.316Z,8.60
2018-12-25T18:55:02.736Z,8.60
2018-12-25T18:57:50.581Z,8.80
2018-12-25T19:00:38.369Z,8.50
2018-12-25T19:03:26.165Z,8.50
2018-12-25T19:06:13.965Z,8.50
2018-12-25T19:09:01.789Z,8.50
2018-12-25T19:11:49.997Z,8.90
2018-12-25T19:14:58.507Z,8.90
2018-12-25T19:17:46.319Z,9.00
2018-12-25T19:20:34.352Z,8.40
2018-12-25T19:23:22.129Z,8.30
2018-12-25T19:26:09.873Z,8.30
2018-12-25T19:28:57.657Z,8.50
2018-12-25T19:31:45.428Z,8.80
2018-12-25T19:34:33.201Z,9.20
2018-12-25T19:37:21.120Z,8.80
2018-12-25T19:40:08.887Z,8.50
2018-12-25T19:42:49.608Z,8.30
2018-12-25T19:45:32.468Z,8.50
2018-12-25T19:48:13.074Z,8.50
2018-12-25T19:50:54.077Z,8.80
2018-12-25T19:53:35.125Z,8.70
2018-12-25T19:56:15.501Z,8.40
2018-12-25T19:58:56.821Z,8.70
2018-12-25T20:01:37.526Z,8.40
2018-12-25T20:04:18.464Z,8.60
2018-12-25T20:06:59.300Z,8.80
2018-12-25T20:09:40.082Z,9.50
2018-12-25T20:12:20.641Z,8.80
2018-12-25T20:15:03.115Z,8.70
2018-12-25T20:17:43.603Z,8.70
2018-12-25T20:20:25.492Z,8.50
2018-12-25T20:23:07.034Z,8.50
2018-12-25T20:25:48.656Z,8.90
2018-12-25T20:28:29.723Z,8.90
2018-12-25T20:31:10.498Z,8.50
2018-12-25T20:33:51.410Z,8.40
2018-12-25T20:36:31.782Z,8.50
2018-12-25T20:39:12.408Z,8.20
2018-12-25T20:41:53.494Z,8.50
2018-12-25T20:44:34.490Z,9.00
2018-12-25T20:47:15.610Z,8.40
2018-12-25T20:49:56.502Z,8.50
2018-12-25T20:52:37.244Z,8.40
2018-12-25T20:55:18.325Z,8.50
2018-12-25T20:57:59.027Z,8.30
2018-12-25T21:00:39.878Z,8.30
2018-12-25T21:03:20.736Z,8.50
2018-12-25T21:06:02.804Z,8.60
2018-12-25T21:08:43.325Z,8.90
2018-12-25T21:11:24.115Z,8.50
2018-12-25T21:14:07.955Z,8.80
2018-12-25T21:16:51.533Z,8.90
2018-12-25T21:22:22.187Z,8.80
2018-12-25T21:25:09.784Z,9.40
2018-12-25T21:27:54.348Z,9.00
2018-12-25T21:30:40.416Z,9.10
2018-12-25T21:33:25.489Z,9.20
2018-12-25T21:36:15.573Z,8.80
2018-12-25T21:39:08.344Z,8.50
2018-12-25T21:41:55.164Z,8.30
2018-12-25T21:44:38.313Z,8.70
2018-12-25T21:47:19.766Z,9.00
2018-12-25T21:50:07.814Z,9.00
2018-12-25T21:53:07.330Z,9.00
2018-12-25T21:56:02.377Z,9.10
2018-12-25T21:59:21.987Z,8.50
2018-12-25T22:02:36.553Z,8.60
2018-12-25T22:11:41.297Z,8.40
2018-12-25T22:14:51.367Z,8.50
2018-12-25T22:18:39.143Z,8.40
2018-12-25T22:20:45.644Z,9.20
2018-12-25T22:23:55.441Z,9.20
2018-12-25T22:27:30.401Z,9.20
2018-12-25T22:33:00.134Z,8.70
2018-12-25T22:39:12.469Z,8.70
2018-12-25T22:41:54.087Z,9.20
2018-12-25T22:47:23.085Z,8.40
2018-12-25T22:52:50.659Z,8.90
2018-12-25T22:55:35.993Z,8.80
2018-12-25T23:01:10.543Z,8.60
2018-12-25T23:03:57.515Z,8.50
2018-12-25T23:06:43.390Z,8.40
2018-12-25T23:12:13.870Z,8.70
2018-12-25T23:14:54.777Z,9.20
2018-12-25T23:17:35.620Z,8.80
2018-12-25T23:20:16.748Z,8.40
2018-12-25T23:22:57.365Z,8.20
2018-12-25T23:25:44.575Z,8.50
2018-12-25T23:28:20.492Z,8.70
2018-12-25T23:31:01.029Z,8.50
2018-12-25T23:33:41.572Z,8.60
2018-12-25T23:36:22.468Z,8.50
2018-12-25T23:39:02.924Z,8.60
2018-12-25T23:41:43.828Z,8.70
2018-12-25T23:44:24.284Z,8.70
2018-12-25T23:47:05.259Z,8.30
2018-12-25T23:49:45.929Z,8.80
2018-12-25T23:52:26.773Z,8.70
2018-12-25T23:55:07.523Z,8.50
2018-12-25T23:57:48.302Z,8.40
